createdAt,value
2023-08-18T03:04:18.096Z,1.85
2023-08-18T03:09:26.196Z,1.98
2023-08-18T03:14:42.866Z,2.28
2023-08-18T03:19:48.395Z,2.05
2023-08-18T03:30:42.962Z,2.30
2023-08-18T03:36:16.449Z,1.83
2023-08-18T03:41:54.573Z,1.73
2023-08-18T03:47:53.901Z,1.88
2023-08-18T03:53:30.891Z,1.55
2023-08-18T04:10:39.253Z,1.80
2023-08-18T04:15:52.057Z,1.77
2023-08-18T04:21:12.984Z,1.58
2023-08-18T04:26:56.098Z,1.90
2023-08-18T04:33:01.938Z,1.50
2023-08-18T04:38:32.677Z,1.88
2023-08-18T04:49:28.571Z,1.70
2023-08-18T04:54:34.456Z,1.63
2023-08-18T04:59:55.045Z,1.80
2023-08-18T05:05:05.856Z,1.67
2023-08-18T05:10:31.989Z,1.65
2023-08-18T06:08:01.201Z,2.15
2023-08-18T06:13:06.511Z,2.03
2023-08-18T06:24:58.491Z,1.83
2023-08-18T06:43:21.269Z,1.83
2023-08-18T06:48:24.192Z,1.42
2023-08-18T06:53:29.349Z,2.22
2023-08-18T06:58:33.396Z,2.70
2023-08-18T07:04:11.211Z,1.75
2023-08-18T07:09:16.119Z,1.73
2023-08-18T07:14:18.331Z,1.50
2023-08-18T07:19:20.490Z,1.77
2023-08-18T07:24:23.213Z,1.77
2023-08-18T07:29:25.353Z,1.40
2023-08-18T07:34:27.868Z,1.10
2023-08-18T07:39:31.223Z,1.50
2023-08-18T07:44:34.071Z,1.20
2023-08-18T07:49:36.237Z,1.13
2023-08-18T07:54:38.468Z,1.25
2023-08-18T07:59:40.595Z,1.25
2023-08-18T08:04:43.926Z,0.95
2023-08-18T08:09:46.021Z,0.82
2023-08-18T08:14:48.865Z,0.70
2023-08-18T08:19:51.558Z,0.80
2023-08-18T08:24:56.158Z,1.02
2023-08-18T08:30:02.466Z,0.65
2023-08-18T08:35:06.545Z,0.95
2023-08-18T08:40:36.135Z,0.68
2023-08-18T08:45:40.120Z,0.82
2023-08-18T08:50:49.687Z,0.70
2023-08-18T08:55:53.401Z,0.73
2023-08-18T09:00:56.067Z,0.80
2023-08-18T09:05:59.314Z,0.60
2023-08-18T09:11:01.669Z,0.40
2023-08-18T09:16:08.645Z,0.65
2023-08-18T09:21:10.893Z,0.75
2023-08-18T09:26:13.041Z,0.68
2023-08-18T09:31:15.461Z,0.70
2023-08-18T09:36:17.617Z,0.50
2023-08-18T09:41:19.767Z,0.28
2023-08-18T09:46:24.896Z,1.05
2023-08-18T09:51:29.087Z,0.60
2023-08-18T09:56:38.588Z,0.50
2023-08-18T10:01:45.185Z,0.60
2023-08-18T10:06:49.602Z,0.52
2023-08-18T10:11:53.904Z,0.50
2023-08-18T10:16:59.711Z,0.65
2023-08-18T10:22:03.612Z,0.60
2023-08-18T10:27:09.135Z,0.60
2023-08-18T10:32:13.485Z,0.60
2023-08-18T10:37:23.675Z,0.40
2023-08-18T10:42:30.007Z,0.60
2023-08-18T10:47:33.870Z,0.60
2023-08-18T10:52:37.359Z,0.63
2023-08-18T10:57:40.946Z,0.60
2023-08-18T11:02:47.888Z,0.50
2023-08-18T11:07:52.011Z,0.55
2023-08-18T11:12:56.369Z,0.57
2023-08-18T11:17:58.913Z,0.60
2023-08-18T11:23:04.456Z,0.70
2023-08-18T11:28:06.955Z,0.50
2023-08-18T11:33:12.982Z,0.77
2023-08-18T11:38:15.934Z,0.60
2023-08-18T11:43:20.253Z,0.93
2023-08-18T11:48:22.512Z,0.70
2023-08-18T11:53:27.064Z,0.65
2023-08-18T11:58:29.739Z,1.02
2023-08-18T12:03:32.844Z,1.25
2023-08-18T12:08:36.120Z,1.17
2023-08-18T12:13:38.269Z,1.13
2023-08-18T12:18:40.585Z,1.50
2023-08-18T12:23:43.227Z,1.60
2023-08-18T12:28:46.132Z,1.30
2023-08-18T12:33:55.225Z,1.80
2023-08-18T12:38:57.660Z,1.48
2023-08-18T12:43:59.900Z,1.00
2023-08-18T12:49:02.598Z,1.25
2023-08-18T12:54:06.472Z,0.93
2023-08-18T12:59:09.260Z,1.80
2023-08-18T13:04:11.782Z,0.93
2023-08-18T13:09:14.288Z,0.90
2023-08-18T13:14:18.159Z,1.05
2023-08-18T13:19:21.291Z,0.73
2023-08-18T13:24:29.450Z,1.45
2023-08-18T13:29:48.341Z,1.20
2023-08-18T13:35:13.278Z,1.17
2023-08-18T13:40:17.882Z,1.33
2023-08-18T13:45:20.628Z,1.02
2023-08-18T13:50:25.742Z,1.10
2023-08-18T13:55:29.141Z,0.90
2023-08-18T14:00:34.719Z,1.23
2023-08-18T14:05:44.219Z,1.02
2023-08-18T14:10:46.713Z,0.98
2023-08-18T14:15:50.145Z,1.00
2023-08-18T14:20:52.685Z,1.27
2023-08-18T14:25:56.342Z,1.88
2023-08-18T14:30:58.788Z,1.00
2023-08-18T14:36:01.972Z,1.20
2023-08-18T14:41:06.170Z,1.20
2023-08-18T14:46:09.354Z,1.30
2023-08-18T14:51:12.160Z,1.65
2023-08-18T14:56:14.352Z,1.20
2023-08-18T15:01:16.613Z,1.40
2023-08-18T15:06:21.147Z,1.38
2023-08-18T15:11:25.899Z,1.23
2023-08-18T15:16:29.363Z,1.52
2023-08-18T15:21:31.737Z,0.90
2023-08-18T15:26:34.629Z,1.25
2023-08-18T15:31:39.856Z,1.15
2023-08-18T15:36:45.369Z,1.50
2023-08-18T15:41:49.822Z,1.33
2023-08-18T15:46:52.494Z,1.25
2023-08-18T15:52:03.521Z,0.85
2023-08-18T15:57:10.828Z,1.20
2023-08-18T16:02:13.620Z,0.85
2023-08-18T16:07:20.440Z,1.17
2023-08-18T16:12:22.864Z,1.40
2023-08-18T16:17:25.293Z,1.40
2023-08-18T16:22:28.505Z,1.02
2023-08-18T16:27:38.656Z,1.20
2023-08-18T16:32:42.270Z,1.05
2023-08-18T16:37:48.790Z,1.15
2023-08-18T16:43:01.152Z,1.30
2023-08-18T16:48:20.119Z,1.08
2023-08-18T16:53:36.537Z,1.00
2023-08-18T16:58:39.037Z,1.20
2023-08-18T17:03:44.004Z,1.10
2023-08-18T17:08:47.571Z,0.90
2023-08-18T17:13:53.678Z,2.25
2023-08-18T17:18:58.944Z,1.10
2023-08-18T17:24:03.996Z,1.05
2023-08-18T17:29:09.768Z,1.30
2023-08-18T17:34:14.368Z,0.80
2023-08-18T17:39:18.220Z,1.08
2023-08-18T17:44:20.521Z,1.10
2023-08-18T17:49:25.098Z,1.50
2023-08-18T17:54:27.212Z,1.65
2023-08-18T17:59:29.350Z,1.20
2023-08-18T18:04:31.591Z,1.08
2023-08-18T18:09:33.851Z,1.00
2023-08-18T18:14:48.300Z,1.10
2023-08-18T18:19:50.833Z,1.08
2023-08-18T18:24:53.333Z,1.10
2023-08-18T18:29:55.764Z,1.10
2023-08-18T18:34:57.903Z,1.05
2023-08-18T18:40:00.132Z,0.95
2023-08-18T18:45:02.247Z,1.35
2023-08-18T18:50:05.315Z,0.90
2023-08-18T18:55:07.914Z,1.08
2023-08-18T19:00:10.569Z,1.48
2023-08-18T19:05:12.898Z,1.10
2023-08-18T19:10:15.250Z,0.95
2023-08-18T19:15:17.466Z,1.02
2023-08-18T19:20:27.499Z,1.10
2023-08-18T19:25:29.813Z,0.90
2023-08-18T19:30:33.888Z,1.88
2023-08-18T19:35:38.055Z,1.80
2023-08-18T19:40:40.284Z,1.40
2023-08-18T19:45:43.554Z,2.95
2023-08-18T19:50:45.756Z,1.85
2023-08-18T19:55:49.704Z,2.72
2023-08-18T20:00:51.946Z,1.55
2023-08-18T20:05:54.247Z,3.28
2023-08-18T20:10:56.572Z,1.75
2023-08-18T20:15:58.895Z,1.90
2023-08-18T20:21:01.152Z,1.95
2023-08-18T20:26:04.821Z,1.40
2023-08-18T20:31:08.390Z,1.70
2023-08-18T20:36:10.560Z,1.20
2023-08-18T20:41:14.237Z,2.10
2023-08-18T20:46:16.477Z,1.63
2023-08-18T20:51:19.257Z,1.80
2023-08-18T20:56:21.388Z,3.03
2023-08-18T21:01:23.550Z,2.50
2023-08-18T21:06:26.294Z,2.50
2023-08-18T21:11:28.487Z,2.10
2023-08-18T21:16:30.725Z,3.05
2023-08-18T21:21:32.817Z,3.25
2023-08-18T21:26:35.131Z,3.13
2023-08-18T21:31:37.289Z,3.85
2023-08-18T21:36:39.394Z,4.57
2023-08-18T21:41:41.910Z,3.95
2023-08-18T21:46:44.076Z,3.53
2023-08-18T21:51:46.251Z,3.90
2023-08-18T21:56:49.170Z,3.22
2023-08-18T22:01:51.281Z,4.10
2023-08-18T22:06:53.465Z,2.80
2023-08-18T22:11:56.356Z,3.45
2023-08-18T22:16:58.506Z,2.40
2023-08-18T22:22:00.773Z,2.83
2023-08-18T22:27:03.476Z,3.40
2023-08-18T22:32:05.977Z,2.78
2023-08-18T22:37:08.397Z,4.15
2023-08-18T22:42:10.786Z,2.53
2023-08-18T22:47:14.726Z,2.28
2023-08-18T22:52:16.908Z,3.08
2023-08-18T22:57:19.024Z,2.38
2023-08-18T23:02:21.228Z,3.13
2023-08-18T23:07:23.406Z,3.20
2023-08-18T23:12:28.646Z,3.65
2023-08-18T23:17:31.990Z,3.33
2023-08-18T23:22:34.585Z,3.03
2023-08-18T23:27:37.287Z,2.63
2023-08-18T23:32:39.713Z,3.83
2023-08-18T23:37:41.821Z,2.92
2023-08-18T23:42:44.340Z,3.53
2023-08-18T23:47:46.560Z,2.50
2023-08-18T23:52:48.724Z,5.15
2023-08-18T23:57:51.180Z,3.05
